createdAt,value
2024-03-10T00:00:25.321Z,49.88
2024-03-10T00:02:52.709Z,49.94
2024-03-10T00:05:20.919Z,49.96
2024-03-10T00:07:47.955Z,50.04
2024-03-10T00:10:18.693Z,49.97
2024-03-10T00:12:49.268Z,50.02
2024-03-10T00:15:17.335Z,50.08
2024-03-10T00:17:44.907Z,50.15
2024-03-10T00:20:13.030Z,50.08
2024-03-10T00:22:44.667Z,50.11
2024-03-10T00:25:13.974Z,50.09
2024-03-10T00:27:41.847Z,50.22
2024-03-10T00:30:10.224Z,50.28
2024-03-10T00:32:37.965Z,50.25
2024-03-10T00:35:06.538Z,50.15
2024-03-10T00:37:33.816Z,50.17
2024-03-10T00:40:00.772Z,50.11
2024-03-10T00:42:28.437Z,50.22
2024-03-10T00:44:55.265Z,50.21
2024-03-10T00:47:22.198Z,50.32
2024-03-10T00:49:50.452Z,50.25
2024-03-10T00:52:17.666Z,50.16
2024-03-10T00:54:44.582Z,50.23
2024-03-10T00:57:11.439Z,50.19
2024-03-10T00:59:38.472Z,50.60
2024-03-10T01:02:06.564Z,50.77
2024-03-10T01:04:34.112Z,50.68
2024-03-10T01:07:01.093Z,50.85
2024-03-10T01:09:30.147Z,50.76
2024-03-10T01:11:57.329Z,50.74
2024-03-10T01:14:24.501Z,50.64
2024-03-10T01:16:51.737Z,50.52
2024-03-10T01:19:18.749Z,50.41
2024-03-10T01:21:48.545Z,50.36
2024-03-10T01:24:15.487Z,50.57
2024-03-10T01:26:42.439Z,50.78
2024-03-10T01:29:09.378Z,51.00
2024-03-10T01:31:36.531Z,50.90
2024-03-10T01:34:03.476Z,50.81
2024-03-10T01:36:31.653Z,50.83
2024-03-10T01:38:58.597Z,50.68
2024-03-10T01:41:26.477Z,50.79
2024-03-10T01:43:54.086Z,50.81
2024-03-10T01:46:24.957Z,50.87
2024-03-10T01:48:52.110Z,50.84
2024-03-10T01:51:19.161Z,50.80
2024-03-10T01:53:46.412Z,50.68
2024-03-10T01:56:14.678Z,50.85
2024-03-10T01:58:45.259Z,50.83
2024-03-10T02:01:14.551Z,50.92
2024-03-10T02:03:43.651Z,51.11
2024-03-10T02:06:10.718Z,51.22
2024-03-10T02:08:38.521Z,51.26
2024-03-10T02:11:07.318Z,51.27
2024-03-10T02:13:34.256Z,51.27
2024-03-10T02:16:03.500Z,51.22
2024-03-10T02:18:31.432Z,51.06
2024-03-10T02:20:58.865Z,51.09
2024-03-10T02:23:33.525Z,51.06
2024-03-10T02:26:00.581Z,51.26
2024-03-10T02:28:47.058Z,51.21
2024-03-10T02:31:32.646Z,51.23
2024-03-10T02:34:18.306Z,51.31
2024-03-10T02:37:04.000Z,51.39
2024-03-10T02:39:49.582Z,51.38
2024-03-10T02:42:35.070Z,51.38
2024-03-10T02:45:20.744Z,51.43
2024-03-10T02:47:47.734Z,51.25
2024-03-10T02:50:14.922Z,50.75
2024-03-10T02:52:42.083Z,50.64
2024-03-10T02:55:12.616Z,50.59
2024-03-10T02:57:39.571Z,50.64
2024-03-10T03:00:13.416Z,50.66
2024-03-10T03:02:40.418Z,50.59
2024-03-10T03:05:08.296Z,50.78
2024-03-10T03:07:35.152Z,50.73
2024-03-10T03:10:02.180Z,50.89
2024-03-10T03:12:29.435Z,50.94
2024-03-10T03:14:56.230Z,51.04
2024-03-10T03:17:25.072Z,51.07
2024-03-10T03:19:52.135Z,51.12
2024-03-10T03:22:19.039Z,50.67
2024-03-10T03:24:45.871Z,50.48
2024-03-10T03:27:12.651Z,50.38
2024-03-10T03:29:39.683Z,50.40
2024-03-10T03:32:06.635Z,50.83
2024-03-10T03:34:34.468Z,51.08
2024-03-10T03:37:01.469Z,51.26
2024-03-10T03:39:28.632Z,51.36
2024-03-10T03:41:55.631Z,51.52
2024-03-10T03:44:22.780Z,51.50
2024-03-10T03:46:49.923Z,51.41
2024-03-10T03:49:16.962Z,51.54
2024-03-10T03:51:44.639Z,51.49
2024-03-10T03:54:11.574Z,51.55
2024-03-10T03:56:38.509Z,51.67
2024-03-10T03:59:05.637Z,51.67
2024-03-10T04:01:35.372Z,51.69
2024-03-10T04:04:02.310Z,51.62
2024-03-10T04:06:29.567Z,51.53
2024-03-10T04:08:58.463Z,51.32
2024-03-10T04:11:26.492Z,51.36
2024-03-10T04:13:53.834Z,51.30
2024-03-10T04:16:20.819Z,51.57
2024-03-10T04:18:50.024Z,51.48
2024-03-10T04:21:17.890Z,51.44
2024-03-10T04:23:44.737Z,51.45
2024-03-10T04:26:11.970Z,51.30
2024-03-10T04:28:39.441Z,51.28
2024-03-10T04:31:06.481Z,51.07
2024-03-10T04:33:34.117Z,51.12
2024-03-10T04:36:01.703Z,50.95
2024-03-10T04:38:28.925Z,50.97
2024-03-10T04:40:56.831Z,50.79
2024-03-10T04:43:24.072Z,50.68
2024-03-10T04:45:53.887Z,50.83
2024-03-10T04:48:21.399Z,50.72
2024-03-10T04:50:48.896Z,50.76
2024-03-10T04:53:16.321Z,50.65
2024-03-10T04:55:44.938Z,50.63
2024-03-10T04:58:11.998Z,50.62
2024-03-10T05:00:40.690Z,50.64
2024-03-10T05:03:07.609Z,50.84
2024-03-10T05:05:34.810Z,51.02
2024-03-10T05:08:02.168Z,50.95
2024-03-10T05:10:29.575Z,51.23
2024-03-10T05:12:57.157Z,51.13
2024-03-10T05:15:24.088Z,51.21
2024-03-10T05:17:51.187Z,51.18
2024-03-10T05:20:19.257Z,51.16
2024-03-10T05:22:46.831Z,51.32
2024-03-10T05:25:14.004Z,51.30
2024-03-10T05:27:44.337Z,51.16
2024-03-10T05:30:11.896Z,51.29
2024-03-10T05:32:38.850Z,51.24
2024-03-10T05:35:10.296Z,51.07
2024-03-10T05:37:37.468Z,51.07
2024-03-10T05:40:07.101Z,51.27
2024-03-10T05:42:34.102Z,50.96
2024-03-10T05:45:03.521Z,50.98
2024-03-10T05:47:30.912Z,51.26
2024-03-10T05:49:58.009Z,51.21
2024-03-10T05:52:25.140Z,51.47
2024-03-10T05:54:52.493Z,51.60
2024-03-10T05:57:19.336Z,51.53
2024-03-10T05:59:46.308Z,51.45
2024-03-10T06:02:17.263Z,51.52
2024-03-10T06:04:45.674Z,51.93
2024-03-10T06:07:12.760Z,52.09
2024-03-10T06:09:39.842Z,52.27
2024-03-10T06:12:10.569Z,52.27
2024-03-10T06:14:38.746Z,52.24
2024-03-10T06:17:06.542Z,52.19
2024-03-10T06:19:52.481Z,52.09
2024-03-10T06:22:38.241Z,52.01
2024-03-10T06:25:25.983Z,52.24
2024-03-10T06:27:52.913Z,52.05
2024-03-10T06:30:20.697Z,52.00
2024-03-10T06:32:50.227Z,52.06
2024-03-10T06:35:17.677Z,51.89
2024-03-10T06:37:45.504Z,51.78
2024-03-10T06:40:13.072Z,51.95
2024-03-10T06:42:42.128Z,52.13
2024-03-10T06:45:10.659Z,52.33
2024-03-10T06:47:39.809Z,52.59
2024-03-10T06:50:07.751Z,52.59
2024-03-10T06:52:34.748Z,52.66
2024-03-10T06:55:01.601Z,52.48
2024-03-10T06:57:31.093Z,52.44
2024-03-10T06:59:59.482Z,52.53
2024-03-10T07:02:27.673Z,52.37
2024-03-10T07:04:56.775Z,52.23
2024-03-10T07:07:25.120Z,51.97
2024-03-10T07:09:52.281Z,52.07
2024-03-10T07:12:19.223Z,51.96
2024-03-10T07:14:49.001Z,51.86
2024-03-10T07:17:16.774Z,51.60
2024-03-10T07:19:43.876Z,51.52
2024-03-10T07:22:10.997Z,51.48
2024-03-10T07:24:38.443Z,51.01
2024-03-10T07:27:06.565Z,50.59
2024-03-10T07:29:33.840Z,50.73
2024-03-10T07:32:01.603Z,50.77
2024-03-10T07:34:29.506Z,50.63
2024-03-10T07:36:56.356Z,50.35
2024-03-10T07:39:23.676Z,49.87
2024-03-10T07:41:50.624Z,49.81
2024-03-10T07:44:18.084Z,49.81
2024-03-10T07:46:45.267Z,49.49
2024-03-10T07:49:12.185Z,49.22
2024-03-10T07:51:39.133Z,49.20
2024-03-10T07:54:06.273Z,48.94
2024-03-10T07:56:34.280Z,48.67
2024-03-10T07:59:01.490Z,48.41
2024-03-10T08:01:29.025Z,48.43
2024-03-10T08:03:56.618Z,48.31
2024-03-10T08:06:23.618Z,48.20
2024-03-10T08:08:52.876Z,48.17
2024-03-10T08:11:22.836Z,48.00
2024-03-10T08:13:50.178Z,47.88
2024-03-10T08:16:18.402Z,47.90
2024-03-10T08:18:47.343Z,47.89
2024-03-10T08:21:15.789Z,47.73
2024-03-10T08:23:43.336Z,47.70
2024-03-10T08:26:13.771Z,48.17
2024-03-10T08:28:41.122Z,48.33
2024-03-10T08:31:08.069Z,47.73
2024-03-10T08:33:35.014Z,47.72
2024-03-10T08:36:02.075Z,47.86
2024-03-10T08:38:29.905Z,48.14
2024-03-10T08:40:58.536Z,48.21
2024-03-10T08:43:25.768Z,48.20
2024-03-10T08:45:52.815Z,47.69
2024-03-10T08:48:19.973Z,47.39
2024-03-10T08:50:47.721Z,47.33
2024-03-10T08:53:15.103Z,47.37
2024-03-10T08:55:42.501Z,47.30
2024-03-10T08:58:09.685Z,47.21
2024-03-10T09:00:39.488Z,47.04
2024-03-10T09:03:06.535Z,47.10
2024-03-10T09:05:33.557Z,47.16
2024-03-10T09:08:00.645Z,47.22
2024-03-10T09:10:35.688Z,47.30
2024-03-10T09:13:11.425Z,47.32
2024-03-10T09:15:38.784Z,47.31
2024-03-10T09:18:06.759Z,47.34
2024-03-10T09:20:34.178Z,47.31
2024-03-10T09:23:02.084Z,47.33
2024-03-10T09:25:31.146Z,47.46
2024-03-10T09:27:58.312Z,47.58
2024-03-10T09:30:25.974Z,47.44
2024-03-10T09:32:55.237Z,47.39
2024-03-10T09:35:24.801Z,47.45
2024-03-10T09:37:52.255Z,47.46
2024-03-10T09:40:19.818Z,47.43
2024-03-10T09:42:48.269Z,47.34
2024-03-10T09:45:20.660Z,47.25
2024-03-10T09:47:50.962Z,47.24
2024-03-10T09:50:24.782Z,47.14
2024-03-10T09:52:55.981Z,47.14
2024-03-10T09:55:22.948Z,47.17
2024-03-10T09:57:57.392Z,47.18
2024-03-10T10:00:25.882Z,47.17
2024-03-10T10:02:59.551Z,47.09
2024-03-10T10:05:30.738Z,47.00
2024-03-10T10:07:58.082Z,46.94
2024-03-10T10:10:27.136Z,46.93
2024-03-10T10:12:58.074Z,46.85
2024-03-10T10:15:27.075Z,46.74
2024-03-10T10:17:57.910Z,46.69
2024-03-10T10:20:26.457Z,46.75
2024-03-10T10:22:54.392Z,46.84
2024-03-10T10:25:23.046Z,47.00
2024-03-10T10:27:51.464Z,47.11
2024-03-10T10:30:20.352Z,47.10
2024-03-10T10:32:48.061Z,47.12
2024-03-10T10:35:16.913Z,47.21
2024-03-10T10:37:47.697Z,47.26
2024-03-10T10:40:14.871Z,47.20
2024-03-10T10:42:53.721Z,47.20
2024-03-10T10:45:28.193Z,47.24
2024-03-10T10:47:55.142Z,47.27
2024-03-10T10:50:32.352Z,47.39
2024-03-10T10:53:00.318Z,47.38
2024-03-10T10:55:28.432Z,47.49
2024-03-10T10:58:12.530Z,47.45
2024-03-10T11:00:43.586Z,47.41
2024-03-10T11:03:15.582Z,47.61
2024-03-10T11:06:15.940Z,47.61
2024-03-10T11:08:49.123Z,47.66
2024-03-10T11:11:48.263Z,47.67
2024-03-10T11:14:23.131Z,47.71
2024-03-10T11:16:50.498Z,47.74
2024-03-10T11:19:28.109Z,47.64
2024-03-10T11:21:56.083Z,47.74
2024-03-10T11:24:26.733Z,47.87
2024-03-10T11:27:19.361Z,47.86
2024-03-10T11:29:46.707Z,47.88
2024-03-10T11:32:35.457Z,47.92
2024-03-10T11:35:07.710Z,47.94
2024-03-10T11:37:37.860Z,47.90
2024-03-10T11:40:06.238Z,47.90
2024-03-10T11:42:33.697Z,47.72
2024-03-10T11:45:03.498Z,47.74
2024-03-10T11:47:32.849Z,47.76
2024-03-10T11:50:05.265Z,47.85
2024-03-10T11:52:32.832Z,47.89
2024-03-10T11:55:00.137Z,47.95
2024-03-10T11:57:27.452Z,47.93
2024-03-10T11:59:55.727Z,48.12
2024-03-10T12:02:23.446Z,48.11
2024-03-10T12:04:50.746Z,48.00
2024-03-10T12:07:17.895Z,47.92
2024-03-10T12:09:44.932Z,47.89
2024-03-10T12:12:13.789Z,47.81
2024-03-10T12:14:44.146Z,47.79
2024-03-10T12:17:14.373Z,47.65
2024-03-10T12:19:44.378Z,47.67
2024-03-10T12:22:11.940Z,47.72
2024-03-10T12:24:40.741Z,47.61
2024-03-10T12:27:08.375Z,47.69
2024-03-10T12:29:49.150Z,47.60
2024-03-10T12:32:16.539Z,47.72
2024-03-10T12:34:44.988Z,47.83
2024-03-10T12:37:13.362Z,47.80
2024-03-10T12:39:40.427Z,47.89
2024-03-10T12:42:07.783Z,47.93
2024-03-10T12:44:34.818Z,47.85
2024-03-10T12:47:01.901Z,47.88
2024-03-10T12:49:29.111Z,47.80
2024-03-10T12:51:56.277Z,47.82
2024-03-10T12:54:23.211Z,47.75
2024-03-10T12:56:50.606Z,47.79
2024-03-10T12:59:17.768Z,47.87
2024-03-10T13:01:44.956Z,47.93
2024-03-10T13:04:12.221Z,47.98
2024-03-10T13:06:39.796Z,48.01
2024-03-10T13:09:09.952Z,48.13
2024-03-10T13:11:37.035Z,48.11
2024-03-10T13:14:05.435Z,48.18
2024-03-10T13:16:32.769Z,48.01
2024-03-10T13:19:01.455Z,48.01
2024-03-10T13:21:29.552Z,48.07
2024-03-10T13:23:58.523Z,48.10
2024-03-10T13:26:25.609Z,48.11
2024-03-10T13:28:52.874Z,48.10
2024-03-10T13:31:19.889Z,48.16
2024-03-10T13:33:47.136Z,48.22
2024-03-10T13:36:17.789Z,48.20
2024-03-10T13:38:45.742Z,48.21
2024-03-10T13:41:13.141Z,48.18
2024-03-10T13:43:43.804Z,48.06
2024-03-10T13:46:12.942Z,48.20
2024-03-10T13:48:40.766Z,48.10
2024-03-10T13:51:08.525Z,48.06
2024-03-10T13:53:35.949Z,48.07
2024-03-10T13:56:04.773Z,48.06
2024-03-10T13:58:32.227Z,48.08
2024-03-10T14:00:59.503Z,48.06
2024-03-10T14:03:26.960Z,48.15
2024-03-10T14:05:54.268Z,48.15
2024-03-10T14:08:21.590Z,48.22
2024-03-10T14:10:49.174Z,48.17
2024-03-10T14:13:19.237Z,48.17
2024-03-10T14:15:46.487Z,48.18
2024-03-10T14:18:13.965Z,48.19
2024-03-10T14:20:40.988Z,48.20
2024-03-10T14:23:08.454Z,48.10
2024-03-10T14:25:35.687Z,48.11
2024-03-10T14:28:03.338Z,48.23
2024-03-10T14:30:31.132Z,48.33
2024-03-10T14:33:01.068Z,48.32
2024-03-10T14:35:29.737Z,48.29
2024-03-10T14:37:57.296Z,48.33
2024-03-10T14:40:24.442Z,48.28
2024-03-10T14:42:52.976Z,48.41
2024-03-10T14:45:20.615Z,48.50
2024-03-10T14:47:50.038Z,48.50
2024-03-10T14:50:22.355Z,48.54
2024-03-10T14:52:50.111Z,48.71
2024-03-10T14:55:17.359Z,48.76
2024-03-10T14:57:45.196Z,48.78
2024-03-10T15:00:40.528Z,48.94
2024-03-10T15:03:08.857Z,48.99
2024-03-10T15:05:40.420Z,49.07
2024-03-10T15:08:09.167Z,49.14
2024-03-10T15:10:37.011Z,49.17
2024-03-10T15:13:05.962Z,49.18
2024-03-10T15:15:32.935Z,49.24
2024-03-10T15:18:00.379Z,49.35
2024-03-10T15:20:28.001Z,49.48
2024-03-10T15:22:55.242Z,49.69
2024-03-10T15:25:23.482Z,49.79
2024-03-10T15:27:50.439Z,49.94
2024-03-10T15:30:20.876Z,49.98
2024-03-10T15:32:49.045Z,50.09
2024-03-10T15:35:17.322Z,50.25
2024-03-10T15:37:44.964Z,50.37
2024-03-10T15:40:13.344Z,50.42
2024-03-10T15:42:44.183Z,50.57
2024-03-10T15:45:13.687Z,50.64
2024-03-10T15:47:41.319Z,50.68
2024-03-10T15:50:10.427Z,50.84
2024-03-10T15:52:37.588Z,51.13
2024-03-10T15:55:06.462Z,51.39
2024-03-10T15:57:33.484Z,51.63
2024-03-10T16:00:00.501Z,51.91
2024-03-10T16:02:27.670Z,52.11
2024-03-10T16:04:54.958Z,52.23
2024-03-10T16:07:22.090Z,52.42
2024-03-10T16:09:51.038Z,52.65
2024-03-10T16:12:19.523Z,52.68
2024-03-10T16:14:46.712Z,52.85
2024-03-10T16:17:15.683Z,53.00
2024-03-10T16:19:43.396Z,53.12
2024-03-10T16:22:11.164Z,53.31
2024-03-10T16:24:40.669Z,53.43
2024-03-10T16:27:08.021Z,53.46
2024-03-10T16:29:35.251Z,53.58
2024-03-10T16:32:02.572Z,53.65
2024-03-10T16:34:29.875Z,53.78
2024-03-10T16:36:56.938Z,53.83
2024-03-10T16:39:23.976Z,53.96
2024-03-10T16:41:50.925Z,53.98
2024-03-10T16:44:18.174Z,54.03
2024-03-10T16:46:45.316Z,53.99
2024-03-10T16:49:12.363Z,54.08
2024-03-10T16:51:39.757Z,54.16
2024-03-10T16:54:06.762Z,54.17
2024-03-10T16:56:34.057Z,54.29
2024-03-10T16:59:01.400Z,54.31
2024-03-10T17:01:30.099Z,54.39
2024-03-10T17:03:59.052Z,54.32
2024-03-10T17:06:26.129Z,54.36
2024-03-10T17:08:53.315Z,54.44
2024-03-10T17:11:22.918Z,54.47
2024-03-10T17:13:50.105Z,54.51
2024-03-10T17:16:17.083Z,54.61
2024-03-10T17:18:45.151Z,54.57
2024-03-10T17:21:12.157Z,54.72
2024-03-10T17:23:40.737Z,54.73
2024-03-10T17:26:08.042Z,54.73
2024-03-10T17:28:35.065Z,54.65
2024-03-10T17:31:02.087Z,54.77
2024-03-10T17:33:29.432Z,54.68
2024-03-10T17:35:56.715Z,54.75
2024-03-10T17:38:23.790Z,54.93
2024-03-10T17:40:51.716Z,54.88
2024-03-10T17:43:19.985Z,54.92
2024-03-10T17:45:47.210Z,54.98
2024-03-10T17:48:14.205Z,55.04
2024-03-10T17:50:42.322Z,55.07
2024-03-10T17:53:10.827Z,55.19
2024-03-10T17:55:39.219Z,55.18
2024-03-10T17:58:07.595Z,55.20
2024-03-10T18:00:35.072Z,55.25
2024-03-10T18:03:02.914Z,55.28
2024-03-10T18:05:30.932Z,55.29
2024-03-10T18:07:58.128Z,55.23
2024-03-10T18:10:25.509Z,55.32
2024-03-10T18:12:52.741Z,55.23
2024-03-10T18:15:21.431Z,55.22
2024-03-10T18:17:49.334Z,55.25
2024-03-10T18:20:18.184Z,55.21
2024-03-10T18:22:45.573Z,55.24
2024-03-10T18:25:13.299Z,55.26
2024-03-10T18:27:40.352Z,55.26
2024-03-10T18:30:12.554Z,55.30
2024-03-10T18:32:39.956Z,55.32
2024-03-10T18:35:13.000Z,55.29
2024-03-10T18:37:40.741Z,55.23
2024-03-10T18:40:10.396Z,55.26
2024-03-10T18:42:38.044Z,55.18
2024-03-10T18:45:08.268Z,55.31
2024-03-10T18:47:36.707Z,55.33
2024-03-10T18:50:07.401Z,55.34
2024-03-10T18:52:36.534Z,55.48
2024-03-10T18:55:04.544Z,55.36
2024-03-10T18:57:32.268Z,55.44
2024-03-10T18:59:59.512Z,55.55
2024-03-10T19:02:31.603Z,55.58
2024-03-10T19:04:59.058Z,55.54
2024-03-10T19:07:26.172Z,55.54
2024-03-10T19:09:53.334Z,55.51
2024-03-10T19:12:21.147Z,55.42
2024-03-10T19:14:48.393Z,55.43
2024-03-10T19:17:15.634Z,55.46
2024-03-10T19:19:42.839Z,55.45
2024-03-10T19:22:09.885Z,55.48
2024-03-10T19:24:38.267Z,55.44
2024-03-10T19:27:05.208Z,55.51
2024-03-10T19:29:32.428Z,55.41
2024-03-10T19:31:59.634Z,55.35
2024-03-10T19:34:26.663Z,55.38
2024-03-10T19:36:54.678Z,55.33
2024-03-10T19:39:21.762Z,55.39
2024-03-10T19:41:48.761Z,55.23
2024-03-10T19:44:15.803Z,55.30
2024-03-10T19:46:43.836Z,55.30
2024-03-10T19:49:11.009Z,55.29
2024-03-10T19:51:38.650Z,55.32
2024-03-10T19:54:05.726Z,55.26
2024-03-10T19:56:32.887Z,55.42
2024-03-10T19:59:00.024Z,55.38
2024-03-10T20:01:28.555Z,55.46
2024-03-10T20:03:57.261Z,55.46
2024-03-10T20:06:25.462Z,55.47
2024-03-10T20:08:52.600Z,55.54
2024-03-10T20:11:19.946Z,55.52
2024-03-10T20:13:48.985Z,55.53
2024-03-10T20:16:16.491Z,55.48
2024-03-10T20:18:43.436Z,55.49
2024-03-10T20:21:12.437Z,55.49
2024-03-10T20:23:39.615Z,55.63
2024-03-10T20:26:08.310Z,55.67
2024-03-10T20:28:35.427Z,55.69
2024-03-10T20:31:02.682Z,55.72
2024-03-10T20:33:34.144Z,55.65
2024-03-10T20:36:02.901Z,55.77
2024-03-10T20:38:30.405Z,55.78
2024-03-10T20:40:58.187Z,55.75
2024-03-10T20:43:25.486Z,55.84
2024-03-10T20:45:59.182Z,55.78
2024-03-10T20:48:32.373Z,55.70
2024-03-10T20:51:00.026Z,55.71
2024-03-10T20:53:27.557Z,55.68
2024-03-10T20:55:55.962Z,55.59
2024-03-10T20:58:23.965Z,55.60
2024-03-10T21:00:54.689Z,55.69
2024-03-10T21:03:22.022Z,55.67
2024-03-10T21:05:49.579Z,55.67
2024-03-10T21:08:16.890Z,55.69
2024-03-10T21:10:44.036Z,55.67
2024-03-10T21:13:11.133Z,55.64
2024-03-10T21:15:39.002Z,55.63
2024-03-10T21:18:06.877Z,55.66
2024-03-10T21:20:35.634Z,55.85
2024-03-10T21:23:02.551Z,55.85
2024-03-10T21:25:30.561Z,55.90
2024-03-10T21:27:57.534Z,55.98
2024-03-10T21:30:24.349Z,56.03
2024-03-10T21:32:51.449Z,56.09
2024-03-10T21:35:21.653Z,56.01
2024-03-10T21:37:48.566Z,55.98
2024-03-10T21:40:17.254Z,56.09
2024-03-10T21:42:44.917Z,56.11
2024-03-10T21:45:12.782Z,56.10
2024-03-10T21:47:42.299Z,56.00
2024-03-10T21:50:11.295Z,56.01
2024-03-10T21:52:39.445Z,55.99
2024-03-10T21:55:06.763Z,55.92
2024-03-10T21:57:35.073Z,55.96
2024-03-10T22:00:11.750Z,55.93
2024-03-10T22:02:39.490Z,55.93
2024-03-10T22:05:07.085Z,55.96
2024-03-10T22:07:35.457Z,55.95
2024-03-10T22:10:02.936Z,56.01
2024-03-10T22:12:30.143Z,56.00
2024-03-10T22:14:57.315Z,55.99
2024-03-10T22:17:24.328Z,56.06
2024-03-10T22:19:51.601Z,56.09
2024-03-10T22:22:18.443Z,56.14
2024-03-10T22:24:45.295Z,56.17
2024-03-10T22:27:12.354Z,56.10
2024-03-10T22:29:39.476Z,56.03
2024-03-10T22:32:09.353Z,56.13
2024-03-10T22:34:36.246Z,56.28
2024-03-10T22:37:03.593Z,56.34
2024-03-10T22:39:30.848Z,56.37
2024-03-10T22:41:58.099Z,56.38
2024-03-10T22:44:25.068Z,56.41
2024-03-10T22:46:51.990Z,56.41
2024-03-10T22:49:18.943Z,56.39
2024-03-10T22:51:46.289Z,56.36
2024-03-10T22:54:15.186Z,56.37
2024-03-10T22:56:42.077Z,56.41
2024-03-10T22:59:09.008Z,56.40
2024-03-10T23:01:36.342Z,56.39
2024-03-10T23:04:04.445Z,56.39
2024-03-10T23:06:31.641Z,56.41
2024-03-10T23:08:59.111Z,56.46
2024-03-10T23:11:26.140Z,56.46
2024-03-10T23:13:53.192Z,56.38
2024-03-10T23:16:20.648Z,56.86
2024-03-10T23:18:50.455Z,57.23
2024-03-10T23:21:17.397Z,57.34
2024-03-10T23:23:46.329Z,56.63
2024-03-10T23:26:13.447Z,56.53
2024-03-10T23:28:40.602Z,56.48
2024-03-10T23:31:08.868Z,56.47
2024-03-10T23:33:36.659Z,56.38
2024-03-10T23:36:04.084Z,56.49
2024-03-10T23:38:31.386Z,56.46
2024-03-10T23:40:58.909Z,56.38
2024-03-10T23:43:27.428Z,56.40
2024-03-10T23:45:54.325Z,56.36
2024-03-10T23:48:22.858Z,56.35
2024-03-10T23:50:51.216Z,56.33
2024-03-10T23:53:19.781Z,56.34
2024-03-10T23:55:56.037Z,56.39
2024-03-10T23:58:22.972Z,56.38
